Time,TemperatureF,DewpointF,PressureIn,WindDirection,WindDirectionDegrees,WindSpeedMPH,WindSpeedGustMPH,Humidity,HourlyPrecipIn,Conditions,Clouds,dailyrainin,SoftwareType,DateUTC
2013-01-15 00:53:00,73.0,-99.9,30.14,ENE,70,8.0,9.0,-999,-99.99,,,-99.99,,2013-01-15 05:53:00,
2013-01-15 01:53:00,72.0,-99.9,30.13,ENE,70,7.0,8.0,-999,-99.99,,,-99.99,,2013-01-15 06:53:00,
2013-01-15 02:53:00,72.0,-99.9,30.12,ENE,70,7.0,8.0,-999,-99.99,,,-99.99,,2013-01-15 07:53:00,
2013-01-15 03:53:00,72.0,-99.9,30.11,ENE,70,6.0,8.0,-999,-99.99,,,-99.99,,2013-01-15 08:53:00,
2013-01-15 04:53:00,73.0,-99.9,30.09,ENE,70,7.0,8.0,-999,-99.99,,,-99.99,,2013-01-15 09:53:00,
2013-01-15 05:52:00,74.0,-99.9,30.09,East,90,9.0,11.0,-999,-99.99,,,-99.99,,2013-01-15 10:52:00,
2013-01-15 06:53:00,74.0,-99.9,30.09,East,90,9.0,10.0,-999,-99.99,,,-99.99,,2013-01-15 11:53:00,
2013-01-15 07:53:00,73.0,-99.9,30.11,East,80,8.0,8.0,-999,-99.99,,,-99.99,,2013-01-15 12:53:00,
2013-01-15 08:53:00,72.0,-99.9,30.12,ENE,70,9.0,11.0,-999,-99.99,,,-99.99,,2013-01-15 13:53:00,
2013-01-15 08:54:00,73.0,-99.9,30.14,East,80,8.0,8.0,-999,-99.99,,,-99.99,,2013-01-15 13:54:00,
2013-01-15 10:53:00,74.0,-99.9,30.14,East,80,7.0,8.0,-999,-99.99,,,-99.99,,2013-01-15 15:53:00,
2013-01-15 11:53:00,75.0,-99.9,30.12,ESE,110,9.0,9.0,-999,-99.99,,,-99.99,,2013-01-15 16:53:00,
2013-01-15 12:53:00,76.0,-99.9,30.10,ESE,120,11.0,14.0,-999,-99.99,,,-99.99,,2013-01-15 17:53:00,
2013-01-15 12:54:00,77.0,-99.9,30.08,ESE,110,11.0,15.0,-999,-99.99,,,-99.99,,2013-01-15 17:54:00,
2013-01-15 14:53:00,77.0,-99.9,30.07,ESE,110,11.0,14.0,-999,-99.99,,,-99.99,,2013-01-15 19:53:00,
2013-01-15 15:53:00,77.0,-99.9,30.06,East,100,11.0,16.0,-999,-99.99,,,-99.99,,2013-01-15 20:53:00,
2013-01-15 16:53:00,77.0,-99.9,30.06,ESE,110,14.0,17.0,-999,-99.99,,,-99.99,,2013-01-15 21:53:00,
2013-01-15 17:53:00,77.0,-99.9,30.08,ESE,120,13.0,14.0,-999,-99.99,,,-99.99,,2013-01-15 22:53:00,
2013-01-15 18:53:00,76.0,-99.9,30.09,ESE,110,11.0,14.0,-999,-99.99,,,-99.99,,2013-01-15 23:53:00,
2013-01-15 19:53:00,76.0,-99.9,30.08,East,100,13.0,15.0,-999,-99.99,,,-99.99,,2013-01-16 00:53:00,
2013-01-15 20:53:00,76.0,-99.9,30.08,East,100,15.0,18.0,-999,-99.99,,,-99.99,,2013-01-16 01:53:00,
2013-01-15 21:53:00,76.0,-99.9,30.08,East,100,15.0,17.0,-999,-99.99,,,-99.99,,2013-01-16 02:53:00,
2013-01-15 22:53:00,75.0,-99.9,30.06,East,90,15.0,17.0,-999,-99.99,,,-99.99,,2013-01-16 03:53:00,
2013-01-15 23:53:00,75.0,-99.9,30.05,East,90,13.0,15.0,-999,-99.99,,,-99.99,,2013-01-16 04:53:00,